sensor_id;sensor_type;location;lat;lon;timestamp;pressure;altitude;pressure_sealevel;temperature;humidity
14689;BME280;7432;48.728;9.154;2022-11-15T00:01:17;96396.38;;;7.80;95.56
14689;BME280;7432;48.728;9.154;2022-11-15T00:03:44;96395.72;;;7.78;96.24
14689;BME280;7432;48.728;9.154;2022-11-15T00:06:11;96393.28;;;7.76;96.38
14689;BME280;7432;48.728;9.154;2022-11-15T00:08:37;96392.94;;;7.71;97.05
14689;BME280;7432;48.728;9.154;2022-11-15T00:11:04;96388.25;;;7.67;97.01
14689;BME280;7432;48.728;9.154;2022-11-15T00:13:31;96382.75;;;7.62;97.58
14689;BME280;7432;48.728;9.154;2022-11-15T00:16:00;96388.97;;;7.59;97.94
14689;BME280;7432;48.728;9.154;2022-11-15T00:18:27;96395.59;;;7.52;98.35
14689;BME280;7432;48.728;9.154;2022-11-15T00:20:53;96391.13;;;7.54;98.15
14689;BME280;7432;48.728;9.154;2022-11-15T00:23:20;96385.50;;;7.51;98.51
14689;BME280;7432;48.728;9.154;2022-11-15T00:25:46;96378.75;;;7.50;98.59
14689;BME280;7432;48.728;9.154;2022-11-15T00:28:13;96382.94;;;7.51;98.85
14689;BME280;7432;48.728;9.154;2022-11-15T00:30:39;96377.47;;;7.46;98.37
14689;BME280;7432;48.728;9.154;2022-11-15T00:33:08;96369.53;;;7.39;98.95
14689;BME280;7432;48.728;9.154;2022-11-15T00:35:34;96371.44;;;7.37;98.10
14689;BME280;7432;48.728;9.154;2022-11-15T00:38:01;96375.38;;;7.32;99.01
14689;BME280;7432;48.728;9.154;2022-11-15T00:40:28;96357.84;;;7.27;99.09
14689;BME280;7432;48.728;9.154;2022-11-15T00:42:54;96362.19;;;7.27;99.70
14689;BME280;7432;48.728;9.154;2022-11-15T00:45:21;96356.81;;;7.20;99.19
14689;BME280;7432;48.728;9.154;2022-11-15T00:47:47;96353.88;;;7.15;100.00
14689;BME280;7432;48.728;9.154;2022-11-15T00:50:16;96353.34;;;7.11;100.00
14689;BME280;7432;48.728;9.154;2022-11-15T00:52:43;96354.88;;;7.04;100.00
14689;BME280;7432;48.728;9.154;2022-11-15T00:55:13;96345.06;;;7.00;100.00
14689;BME280;7432;48.728;9.154;2022-11-15T00:57:40;96343.75;;;6.96;100.00
14689;BME280;7432;48.728;9.154;2022-11-15T01:00:08;96347.09;;;6.96;100.00
14689;BME280;7432;48.728;9.154;2022-11-15T01:02:34;96343.75;;;6.96;100.00
14689;BME280;7432;48.728;9.154;2022-11-15T01:05:01;96340.22;;;6.97;100.00
14689;BME280;7432;48.728;9.154;2022-11-15T01:07:28;96337.38;;;7.00;100.00
14689;BME280;7432;48.728;9.154;2022-11-15T01:09:55;96336.44;;;7.01;100.00
14689;BME280;7432;48.728;9.154;2022-11-15T01:12:21;96331.88;;;6.95;100.00
14689;BME280;7432;48.728;9.154;2022-11-15T01:14:49;96335.81;;;6.89;100.00
14689;BME280;7432;48.728;9.154;2022-11-15T01:17:15;96332.22;;;6.82;100.00
14689;BME280;7432;48.728;9.154;2022-11-15T01:19:42;96336.94;;;6.77;100.00
14689;BME280;7432;48.728;9.154;2022-11-15T01:22:08;96335.06;;;6.70;100.00
14689;BME280;7432;48.728;9.154;2022-11-15T01:24:36;96337.41;;;6.63;100.00
14689;BME280;7432;48.728;9.154;2022-11-15T01:27:02;96332.56;;;6.60;100.00
14689;BME280;7432;48.728;9.154;2022-11-15T01:29:29;96332.97;;;6.55;100.00
14689;BME280;7432;48.728;9.154;2022-11-15T01:31:55;96341.59;;;6.54;100.00
14689;BME280;7432;48.728;9.154;2022-11-15T01:34:22;96327.75;;;6.47;100.00
14689;BME280;7432;48.728;9.154;2022-11-15T01:36:48;96328.16;;;6.43;100.00
14689;BME280;7432;48.728;9.154;2022-11-15T01:39:15;96322.13;;;6.34;100.00
14689;BME280;7432;48.728;9.154;2022-11-15T01:41:43;96327.09;;;6.36;100.00
14689;BME280;7432;48.728;9.154;2022-11-15T01:44:36;96322.91;;;6.35;100.00
14689;BME280;7432;48.728;9.154;2022-11-15T01:47:07;96322.69;;;6.28;100.00
14689;BME280;7432;48.728;9.154;2022-11-15T01:49:37;96322.97;;;6.25;100.00
14689;BME280;7432;48.728;9.154;2022-11-15T01:52:09;96318.25;;;6.21;100.00
14689;BME280;7432;48.728;9.154;2022-11-15T01:54:36;96313.28;;;6.19;100.00
14689;BME280;7432;48.728;9.154;2022-11-15T01:57:06;96311.16;;;6.15;100.00
14689;BME280;7432;48.728;9.154;2022-11-15T01:59:33;96318.13;;;6.13;100.00
14689;BME280;7432;48.728;9.154;2022-11-15T02:02:00;96318.94;;;6.13;100.00
14689;BME280;7432;48.728;9.154;2022-11-15T02:04:28;96317.88;;;6.06;100.00
14689;BME280;7432;48.728;9.154;2022-11-15T02:06:55;96311.94;;;6.06;100.00
14689;BME280;7432;48.728;9.154;2022-11-15T02:09:22;96310.34;;;6.05;100.00
14689;BME280;7432;48.728;9.154;2022-11-15T02:11:49;96307.13;;;6.03;100.00
14689;BME280;7432;48.728;9.154;2022-11-15T02:14:19;96300.66;;;5.98;100.00
14689;BME280;7432;48.728;9.154;2022-11-15T02:16:53;96298.25;;;5.97;100.00
14689;BME280;7432;48.728;9.154;2022-11-15T02:22:30;96285.72;;;5.94;100.00
14689;BME280;7432;48.728;9.154;2022-11-15T02:25:10;96292.47;;;5.95;100.00
14689;BME280;7432;48.728;9.154;2022-11-15T02:27:59;96290.84;;;5.94;100.00
14689;BME280;7432;48.728;9.154;2022-11-15T02:30:38;96279.31;;;5.90;100.00
14689;BME280;7432;48.728;9.154;2022-11-15T02:33:15;96282.25;;;5.85;100.00
14689;BME280;7432;48.728;9.154;2022-11-15T02:35:49;96281.44;;;5.85;100.00
14689;BME280;7432;48.728;9.154;2022-11-15T02:38:22;96276.72;;;5.80;100.00
14689;BME280;7432;48.728;9.154;2022-11-15T02:40:53;96278.72;;;5.77;100.00
14689;BME280;7432;48.728;9.154;2022-11-15T02:43:26;96273.50;;;5.78;100.00
14689;BME280;7432;48.728;9.154;2022-11-15T02:46:18;96271.34;;;5.83;100.00
14689;BME280;7432;48.728;9.154;2022-11-15T02:49:08;96267.31;;;5.90;100.00
14689;BME280;7432;48.728;9.154;2022-11-15T02:51:35;96269.47;;;5.95;100.00
14689;BME280;7432;48.728;9.154;2022-11-15T02:54:02;96240.28;;;5.88;100.00
14689;BME280;7432;48.728;9.154;2022-11-15T02:56:28;96262.44;;;6.07;100.00
14689;BME280;7432;48.728;9.154;2022-11-15T02:59:04;96256.22;;;6.19;100.00
14689;BME280;7432;48.728;9.154;2022-11-15T03:01:46;96257.47;;;6.15;100.00
14689;BME280;7432;48.728;9.154;2022-11-15T03:04:23;96249.16;;;6.03;100.00
14689;BME280;7432;48.728;9.154;2022-11-15T03:07:00;96256.41;;;5.98;100.00
14689;BME280;7432;48.728;9.154;2022-11-15T03:09:34;96255.88;;;5.94;100.00
14689;BME280;7432;48.728;9.154;2022-11-15T03:12:07;96227.25;;;5.72;100.00
14689;BME280;7432;48.728;9.154;2022-11-15T03:14:36;96247.94;;;5.78;100.00
14689;BME280;7432;48.728;9.154;2022-11-15T03:17:14;96245.38;;;5.78;100.00
14689;BME280;7432;48.728;9.154;2022-11-15T03:19:44;96245.66;;;5.75;100.00
14689;BME280;7432;48.728;9.154;2022-11-15T03:22:13;96250.88;;;5.74;100.00
14689;BME280;7432;48.728;9.154;2022-11-15T03:24:44;96249.16;;;5.74;100.00
14689;BME280;7432;48.728;9.154;2022-11-15T03:27:13;96239.75;;;5.75;100.00
14689;BME280;7432;48.728;9.154;2022-11-15T03:29:43;96243.22;;;5.74;100.00
14689;BME280;7432;48.728;9.154;2022-11-15T03:32:15;96238.81;;;5.76;100.00
14689;BME280;7432;48.728;9.154;2022-11-15T03:34:45;96233.16;;;5.72;100.00
14689;BME280;7432;48.728;9.154;2022-11-15T03:37:14;96235.72;;;5.82;100.00
14689;BME280;7432;48.728;9.154;2022-11-15T03:39:42;96220.81;;;5.87;100.00
14689;BME280;7432;48.728;9.154;2022-11-15T03:42:17;96222.41;;;5.88;100.00
14689;BME280;7432;48.728;9.154;2022-11-15T03:44:51;96223.59;;;5.93;100.00
14689;BME280;7432;48.728;9.154;2022-11-15T03:47:21;96226.03;;;5.95;100.00
14689;BME280;7432;48.728;9.154;2022-11-15T03:49:52;96213.13;;;5.87;100.00
14689;BME280;7432;48.728;9.154;2022-11-15T03:52:19;96224.78;;;5.99;100.00
14689;BME280;7432;48.728;9.154;2022-11-15T03:54:50;96215.75;;;6.05;100.00
14689;BME280;7432;48.728;9.154;2022-11-15T03:57:17;96205.25;;;6.08;100.00
14689;BME280;7432;48.728;9.154;2022-11-15T03:59:43;96210.38;;;6.08;100.00
14689;BME280;7432;48.728;9.154;2022-11-15T04:02:10;96218.84;;;6.08;100.00
14689;BME280;7432;48.728;9.154;2022-11-15T04:04:38;96213.88;;;6.07;100.00
14689;BME280;7432;48.728;9.154;2022-11-15T04:07:04;96209.34;;;6.01;100.00
14689;BME280;7432;48.728;9.154;2022-11-15T04:09:30;96215.38;;;6.00;100.00
14689;BME280;7432;48.728;9.154;2022-11-15T04:11:57;96206.63;;;6.02;100.00
14689;BME280;7432;48.728;9.154;2022-11-15T04:14:23;96211.50;;;5.95;100.00
14689;BME280;7432;48.728;9.154;2022-11-15T04:16:50;96209.22;;;5.92;100.00
14689;BME280;7432;48.728;9.154;2022-11-15T04:19:16;96207.06;;;5.88;100.00
14689;BME280;7432;48.728;9.154;2022-11-15T04:22:01;96215.41;;;5.90;100.00
14689;BME280;7432;48.728;9.154;2022-11-15T04:24:45;96211.09;;;5.90;100.00
14689;BME280;7432;48.728;9.154;2022-11-15T04:27:12;96212.19;;;5.88;100.00
14689;BME280;7432;48.728;9.154;2022-11-15T04:29:38;96206.66;;;5.92;100.00
14689;BME280;7432;48.728;9.154;2022-11-15T04:32:06;96215.41;;;5.90;100.00
14689;BME280;7432;48.728;9.154;2022-11-15T04:34:32;96212.56;;;5.83;100.00
14689;BME280;7432;48.728;9.154;2022-11-15T04:37:01;96203.72;;;5.78;100.00
14689;BME280;7432;48.728;9.154;2022-11-15T04:39:42;96193.75;;;5.75;100.00
14689;BME280;7432;48.728;9.154;2022-11-15T04:42:09;96190.81;;;5.70;100.00
14689;BME280;7432;48.728;9.154;2022-11-15T04:44:36;96195.94;;;5.70;100.00
14689;BME280;7432;48.728;9.154;2022-11-15T04:47:03;96195.66;;;5.73;100.00
14689;BME280;7432;48.728;9.154;2022-11-15T04:49:29;96194.44;;;5.67;100.00
14689;BME280;7432;48.728;9.154;2022-11-15T04:51:56;96188.41;;;5.59;100.00
14689;BME280;7432;48.728;9.154;2022-11-15T04:54:24;96191.09;;;5.67;100.00
14689;BME280;7432;48.728;9.154;2022-11-15T04:56:50;96191.91;;;5.67;100.00
14689;BME280;7432;48.728;9.154;2022-11-15T04:59:17;96198.75;;;5.67;100.00
14689;BME280;7432;48.728;9.154;2022-11-15T05:01:43;96191.09;;;5.67;100.00
14689;BME280;7432;48.728;9.154;2022-11-15T05:04:09;96184.78;;;5.71;100.00
14689;BME280;7432;48.728;9.154;2022-11-15T05:06:44;96186.63;;;5.78;100.00
14689;BME280;7432;48.728;9.154;2022-11-15T05:09:11;96159.22;;;5.71;100.00
14689;BME280;7432;48.728;9.154;2022-11-15T05:11:40;96180.16;;;5.84;100.00
14689;BME280;7432;48.728;9.154;2022-11-15T05:14:07;96172.63;;;5.82;100.00
14689;BME280;7432;48.728;9.154;2022-11-15T05:16:33;96179.78;;;5.79;100.00
14689;BME280;7432;48.728;9.154;2022-11-15T05:18:59;96176.81;;;5.74;100.00
14689;BME280;7432;48.728;9.154;2022-11-15T05:21:26;96170.38;;;5.70;100.00
14689;BME280;7432;48.728;9.154;2022-11-15T05:23:52;96171.75;;;5.64;100.00
14689;BME280;7432;48.728;9.154;2022-11-15T05:26:19;96175.09;;;5.65;100.00
14689;BME280;7432;48.728;9.154;2022-11-15T05:28:52;96172.41;;;5.66;100.00
14689;BME280;7432;48.728;9.154;2022-11-15T05:31:18;96176.31;;;5.61;100.00
14689;BME280;7432;48.728;9.154;2022-11-15T05:33:45;96165.59;;;5.57;100.00
14689;BME280;7432;48.728;9.154;2022-11-15T05:36:15;96172.44;;;5.57;100.00
14689;BME280;7432;48.728;9.154;2022-11-15T05:38:43;96164.50;;;5.60;100.00
14689;BME280;7432;48.728;9.154;2022-11-15T05:41:11;96157.22;;;5.65;100.00
14689;BME280;7432;48.728;9.154;2022-11-15T05:43:40;96151.69;;;5.69;100.00
14689;BME280;7432;48.728;9.154;2022-11-15T05:46:08;96153.16;;;5.72;100.00
14689;BME280;7432;48.728;9.154;2022-11-15T05:48:36;96147.50;;;5.68;100.00
14689;BME280;7432;48.728;9.154;2022-11-15T05:51:04;96154.78;;;5.73;100.00
14689;BME280;7432;48.728;9.154;2022-11-15T05:53:33;96151.00;;;5.77;100.00
14689;BME280;7432;48.728;9.154;2022-11-15T05:56:01;96151.25;;;5.83;100.00
14689;BME280;7432;48.728;9.154;2022-11-15T05:58:28;96160.25;;;5.87;100.00
14689;BME280;7432;48.728;9.154;2022-11-15T06:00:56;96151.66;;;5.88;100.00
14689;BME280;7432;48.728;9.154;2022-11-15T06:03:24;96146.16;;;5.83;100.00
14689;BME280;7432;48.728;9.154;2022-11-15T06:05:51;96160.81;;;5.81;100.00
14689;BME280;7432;48.728;9.154;2022-11-15T06:08:17;96157.56;;;5.79;100.00
14689;BME280;7432;48.728;9.154;2022-11-15T06:10:43;96150.88;;;5.78;100.00
14689;BME280;7432;48.728;9.154;2022-11-15T06:13:10;96156.09;;;5.77;100.00
14689;BME280;7432;48.728;9.154;2022-11-15T06:15:36;96151.00;;;5.77;100.00
14689;BME280;7432;48.728;9.154;2022-11-15T06:18:03;96158.53;;;5.78;100.00
14689;BME280;7432;48.728;9.154;2022-11-15T06:20:31;96164.84;;;5.74;100.00
14689;BME280;7432;48.728;9.154;2022-11-15T06:22:57;96166.91;;;5.71;100.00
14689;BME280;7432;48.728;9.154;2022-11-15T06:25:24;96167.28;;;5.66;100.00
14689;BME280;7432;48.728;9.154;2022-11-15T06:27:51;96158.97;;;5.64;100.00
14689;BME280;7432;48.728;9.154;2022-11-15T06:30:18;96162.59;;;5.62;100.00
14689;BME280;7432;48.728;9.154;2022-11-15T06:32:44;96162.44;;;5.63;100.00
14689;BME280;7432;48.728;9.154;2022-11-15T06:35:11;96155.06;;;5.60;100.00
14689;BME280;7432;48.728;9.154;2022-11-15T06:37:39;96161.25;;;5.67;100.00
14689;BME280;7432;48.728;9.154;2022-11-15T06:40:07;96159.09;;;5.72;100.00
14689;BME280;7432;48.728;9.154;2022-11-15T06:42:33;96167.94;;;5.78;100.00
14689;BME280;7432;48.728;9.154;2022-11-15T06:45:00;96168.19;;;5.84;100.00
14689;BME280;7432;48.728;9.154;2022-11-15T06:47:26;96153.69;;;5.85;100.00
14689;BME280;7432;48.728;9.154;2022-11-15T06:49:53;96169.22;;;6.01;100.00
14689;BME280;7432;48.728;9.154;2022-11-15T06:52:19;96177.41;;;6.14;100.00
14689;BME280;7432;48.728;9.154;2022-11-15T06:54:48;96173.06;;;6.24;100.00
14689;BME280;7432;48.728;9.154;2022-11-15T06:57:14;96176.25;;;6.36;100.00
14689;BME280;7432;48.728;9.154;2022-11-15T06:59:40;96180.19;;;6.48;100.00
14689;BME280;7432;48.728;9.154;2022-11-15T07:02:12;96172.25;;;6.51;100.00
14689;BME280;7432;48.728;9.154;2022-11-15T07:04:38;96172.78;;;6.54;100.00
14689;BME280;7432;48.728;9.154;2022-11-15T07:07:05;96179.34;;;6.57;100.00
14689;BME280;7432;48.728;9.154;2022-11-15T07:09:31;96182.16;;;6.64;100.00
14689;BME280;7432;48.728;9.154;2022-11-15T07:11:59;96182.38;;;6.70;100.00
14689;BME280;7432;48.728;9.154;2022-11-15T07:14:25;96181.97;;;6.75;100.00
14689;BME280;7432;48.728;9.154;2022-11-15T07:16:51;96175.59;;;6.79;100.00
14689;BME280;7432;48.728;9.154;2022-11-15T07:19:18;96178.38;;;6.85;100.00
14689;BME280;7432;48.728;9.154;2022-11-15T07:21:44;96177.66;;;6.93;100.00
14689;BME280;7432;48.728;9.154;2022-11-15T07:24:11;96178.66;;;7.00;100.00
14689;BME280;7432;48.728;9.154;2022-11-15T07:26:38;96171.59;;;7.11;100.00
14689;BME280;7432;48.728;9.154;2022-11-15T07:29:05;96174.66;;;7.15;100.00
14689;BME280;7432;48.728;9.154;2022-11-15T07:31:32;96180.44;;;7.35;100.00
14689;BME280;7432;48.728;9.154;2022-11-15T07:33:58;96177.53;;;7.55;100.00
14689;BME280;7432;48.728;9.154;2022-11-15T07:36:25;96175.63;;;8.34;100.00
14689;BME280;7432;48.728;9.154;2022-11-15T07:38:51;96172.16;;;10.84;95.40
14689;BME280;7432;48.728;9.154;2022-11-15T07:41:17;96169.19;;;14.07;81.65
14689;BME280;7432;48.728;9.154;2022-11-15T07:43:44;96180.78;;;17.28;64.98
14689;BME280;7432;48.728;9.154;2022-11-15T07:46:11;96186.84;;;18.52;57.31
14689;BME280;7432;48.728;9.154;2022-11-15T07:48:38;96171.81;;;17.55;57.76
14689;BME280;7432;48.728;9.154;2022-11-15T07:51:05;96177.34;;;16.25;59.31
14689;BME280;7432;48.728;9.154;2022-11-15T07:53:32;96168.81;;;15.79;61.23
14689;BME280;7432;48.728;9.154;2022-11-15T07:55:58;96173.84;;;17.46;59.71
14689;BME280;7432;48.728;9.154;2022-11-15T07:58:25;96169.72;;;18.19;55.96
14689;BME280;7432;48.728;9.154;2022-11-15T08:00:51;96171.09;;;17.41;55.84
14689;BME280;7432;48.728;9.154;2022-11-15T08:03:19;96173.94;;;16.38;57.63
14689;BME280;7432;48.728;9.154;2022-11-15T08:05:50;96169.75;;;15.32;60.74
14689;BME280;7432;48.728;9.154;2022-11-15T08:08:17;96169.72;;;14.65;64.21
14689;BME280;7432;48.728;9.154;2022-11-15T08:10:43;96165.56;;;14.64;65.63
14689;BME280;7432;48.728;9.154;2022-11-15T08:13:11;96150.50;;;14.46;67.44
14689;BME280;7432;48.728;9.154;2022-11-15T08:15:37;96160.44;;;14.43;68.12
14689;BME280;7432;48.728;9.154;2022-11-15T08:18:05;96164.53;;;14.58;66.24
14689;BME280;7432;48.728;9.154;2022-11-15T08:20:33;96158.28;;;14.40;66.40
14689;BME280;7432;48.728;9.154;2022-11-15T08:23:01;96151.78;;;13.95;67.86
14689;BME280;7432;48.728;9.154;2022-11-15T08:25:30;96153.69;;;13.58;68.99
14689;BME280;7432;48.728;9.154;2022-11-15T08:27:59;96158.28;;;13.35;69.63
14689;BME280;7432;48.728;9.154;2022-11-15T08:30:27;96144.97;;;13.17;70.91
14689;BME280;7432;48.728;9.154;2022-11-15T08:32:56;96146.44;;;13.05;71.62
14689;BME280;7432;48.728;9.154;2022-11-15T08:35:23;96148.16;;;12.62;69.73
14689;BME280;7432;48.728;9.154;2022-11-15T08:37:52;96143.28;;;12.23;70.03
14689;BME280;7432;48.728;9.154;2022-11-15T08:40:19;96136.50;;;12.22;70.88
14689;BME280;7432;48.728;9.154;2022-11-15T08:42:46;96132.78;;;12.10;71.61
14689;BME280;7432;48.728;9.154;2022-11-15T08:45:12;96132.44;;;11.99;71.51
14689;BME280;7432;48.728;9.154;2022-11-15T08:47:39;96129.03;;;11.98;72.37
14689;BME280;7432;48.728;9.154;2022-11-15T08:50:06;96133.41;;;11.98;71.53
14689;BME280;7432;48.728;9.154;2022-11-15T08:52:33;96129.50;;;12.02;72.83
14689;BME280;7432;48.728;9.154;2022-11-15T08:55:01;96116.25;;;12.05;73.89
14689;BME280;7432;48.728;9.154;2022-11-15T08:57:28;96120.06;;;12.09;73.86
14689;BME280;7432;48.728;9.154;2022-11-15T08:59:55;96117.91;;;11.98;72.67
14689;BME280;7432;48.728;9.154;2022-11-15T09:02:21;96119.06;;;11.95;72.81
14689;BME280;7432;48.728;9.154;2022-11-15T09:04:47;96117.09;;;11.97;73.28
14689;BME280;7432;48.728;9.154;2022-11-15T09:07:14;96112.16;;;12.10;72.76
14689;BME280;7432;48.728;9.154;2022-11-15T09:09:41;96114.25;;;12.36;72.50
14689;BME280;7432;48.728;9.154;2022-11-15T09:12:09;96115.41;;;12.48;73.21
14689;BME280;7432;48.728;9.154;2022-11-15T09:14:35;96115.91;;;12.58;73.82
14689;BME280;7432;48.728;9.154;2022-11-15T09:17:02;96113.56;;;12.63;74.28
14689;BME280;7432;48.728;9.154;2022-11-15T09:19:28;96118.72;;;12.78;74.17
14689;BME280;7432;48.728;9.154;2022-11-15T09:21:55;96097.13;;;12.85;73.22
14689;BME280;7432;48.728;9.154;2022-11-15T09:24:21;96108.91;;;13.09;71.87
14689;BME280;7432;48.728;9.154;2022-11-15T09:26:49;96103.66;;;13.24;70.51
14689;BME280;7432;48.728;9.154;2022-11-15T09:29:17;96108.91;;;13.09;68.39
14689;BME280;7432;48.728;9.154;2022-11-15T09:31:44;96110.50;;;13.31;68.45
14689;BME280;7432;48.728;9.154;2022-11-15T09:34:11;96108.31;;;13.56;68.69
14689;BME280;7432;48.728;9.154;2022-11-15T09:36:37;96111.78;;;13.70;67.88
14689;BME280;7432;48.728;9.154;2022-11-15T09:39:04;96110.19;;;13.69;66.82
14689;BME280;7432;48.728;9.154;2022-11-15T09:41:50;96110.16;;;13.62;68.21
14689;BME280;7432;48.728;9.154;2022-11-15T09:44:37;96107.25;;;13.50;68.22
14689;BME280;7432;48.728;9.154;2022-11-15T09:47:22;96104.91;;;13.28;69.00
14689;BME280;7432;48.728;9.154;2022-11-15T09:49:58;96102.50;;;13.26;70.34
14689;BME280;7432;48.728;9.154;2022-11-15T09:52:25;96097.56;;;13.31;69.14
14689;BME280;7432;48.728;9.154;2022-11-15T09:54:52;96092.13;;;13.47;69.23
14689;BME280;7432;48.728;9.154;2022-11-15T09:57:22;96094.34;;;13.50;68.37
14689;BME280;7432;48.728;9.154;2022-11-15T10:00:08;96094.63;;;13.62;69.12
14689;BME280;7432;48.728;9.154;2022-11-15T10:02:46;96088.56;;;13.83;69.38
14689;BME280;7432;48.728;9.154;2022-11-15T10:05:20;96089.13;;;14.06;69.17
14689;BME280;7432;48.728;9.154;2022-11-15T10:07:54;96084.63;;;14.27;69.36
14689;BME280;7432;48.728;9.154;2022-11-15T10:10:27;96081.38;;;14.47;68.64
14689;BME280;7432;48.728;9.154;2022-11-15T10:12:56;96084.78;;;14.60;67.48
14689;BME280;7432;48.728;9.154;2022-11-15T10:15:25;96079.22;;;14.63;67.61
14689;BME280;7432;48.728;9.154;2022-11-15T10:18:07;96080.41;;;14.61;68.03
14689;BME280;7432;48.728;9.154;2022-11-15T10:20:50;96074.22;;;14.55;68.68
14689;BME280;7432;48.728;9.154;2022-11-15T10:23:22;96065.44;;;14.50;68.01
14689;BME280;7432;48.728;9.154;2022-11-15T10:25:51;96071.59;;;14.49;68.89
14689;BME280;7432;48.728;9.154;2022-11-15T10:28:22;96058.84;;;14.54;69.18
14689;BME280;7432;48.728;9.154;2022-11-15T10:30:54;96063.66;;;14.50;68.85
14689;BME280;7432;48.728;9.154;2022-11-15T10:33:26;96040.50;;;14.49;68.44
14689;BME280;7432;48.728;9.154;2022-11-15T10:36:14;96047.31;;;14.63;68.66
14689;BME280;7432;48.728;9.154;2022-11-15T10:38:54;96048.53;;;14.67;68.29
14689;BME280;7432;48.728;9.154;2022-11-15T10:41:28;96040.94;;;14.65;69.01
14689;BME280;7432;48.728;9.154;2022-11-15T10:44:09;96048.13;;;14.63;67.41
14689;BME280;7432;48.728;9.154;2022-11-15T10:46:40;96041.34;;;14.62;67.46
14689;BME280;7432;48.728;9.154;2022-11-15T10:49:13;96030.78;;;14.64;67.89
14689;BME280;7432;48.728;9.154;2022-11-15T10:51:43;96035.34;;;14.62;67.97
14689;BME280;7432;48.728;9.154;2022-11-15T10:54:12;96034.75;;;14.60;68.20
14689;BME280;7432;48.728;9.154;2022-11-15T10:56:41;96027.53;;;14.49;68.67
14689;BME280;7432;48.728;9.154;2022-11-15T10:59:16;96030.09;;;14.36;68.38
14689;BME280;7432;48.728;9.154;2022-11-15T11:01:48;96034.25;;;14.30;69.26
14689;BME280;7432;48.728;9.154;2022-11-15T11:04:15;96031.03;;;14.21;68.88
14689;BME280;7432;48.728;9.154;2022-11-15T11:06:49;96025.59;;;14.10;70.32
14689;BME280;7432;48.728;9.154;2022-11-15T11:09:25;96022.94;;;13.97;70.88
14689;BME280;7432;48.728;9.154;2022-11-15T11:11:53;96029.63;;;13.78;72.48
14689;BME280;7432;48.728;9.154;2022-11-15T11:14:21;96028.59;;;13.73;73.23
14689;BME280;7432;48.728;9.154;2022-11-15T11:16:52;96026.63;;;13.75;74.12
14689;BME280;7432;48.728;9.154;2022-11-15T11:19:35;96021.44;;;13.75;73.34
14689;BME280;7432;48.728;9.154;2022-11-15T11:22:11;96015.94;;;13.84;74.59
14689;BME280;7432;48.728;9.154;2022-11-15T11:24:44;96007.75;;;13.81;74.51
14689;BME280;7432;48.728;9.154;2022-11-15T11:27:21;96008.22;;;13.97;74.15
14689;BME280;7432;48.728;9.154;2022-11-15T11:30:02;96013.66;;;14.15;73.00
14689;BME280;7432;48.728;9.154;2022-11-15T11:32:49;96006.56;;;14.31;72.14
14689;BME280;7432;48.728;9.154;2022-11-15T11:35:24;96006.78;;;14.36;71.38
14689;BME280;7432;48.728;9.154;2022-11-15T11:37:59;96003.00;;;14.38;71.40
14689;BME280;7432;48.728;9.154;2022-11-15T11:40:32;95982.28;;;14.38;72.26
14689;BME280;7432;48.728;9.154;2022-11-15T11:43:09;95964.91;;;14.25;71.52
14689;BME280;7432;48.728;9.154;2022-11-15T11:46:05;95980.50;;;14.39;71.01
14689;BME280;7432;48.728;9.154;2022-11-15T11:48:42;95977.69;;;14.34;71.51
14689;BME280;7432;48.728;9.154;2022-11-15T11:51:18;95970.31;;;14.37;71.47
14689;BME280;7432;48.728;9.154;2022-11-15T11:53:49;95966.94;;;14.43;70.74
14689;BME280;7432;48.728;9.154;2022-11-15T11:56:24;95971.13;;;14.51;69.87
14689;BME280;7432;48.728;9.154;2022-11-15T11:58:53;95971.34;;;14.49;70.17
14689;BME280;7432;48.728;9.154;2022-11-15T12:01:23;95960.78;;;14.57;70.56
14689;BME280;7432;48.728;9.154;2022-11-15T12:03:56;95965.97;;;14.70;69.44
14689;BME280;7432;48.728;9.154;2022-11-15T12:06:31;95967.59;;;14.78;70.25
14689;BME280;7432;48.728;9.154;2022-11-15T12:09:02;95960.81;;;14.77;68.77
14689;BME280;7432;48.728;9.154;2022-11-15T12:11:37;95955.03;;;14.75;67.61
14689;BME280;7432;48.728;9.154;2022-11-15T12:14:12;95961.81;;;14.76;68.92
14689;BME280;7432;48.728;9.154;2022-11-15T12:16:42;95948.84;;;14.69;70.19
14689;BME280;7432;48.728;9.154;2022-11-15T12:19:10;95952.41;;;14.62;68.49
14689;BME280;7432;48.728;9.154;2022-11-15T12:21:42;95942.63;;;14.51;70.82
14689;BME280;7432;48.728;9.154;2022-11-15T12:24:15;95942.81;;;14.43;72.20
14689;BME280;7432;48.728;9.154;2022-11-15T12:26:49;95942.22;;;14.41;72.49
14689;BME280;7432;48.728;9.154;2022-11-15T12:29:20;95941.78;;;14.31;71.11
14689;BME280;7432;48.728;9.154;2022-11-15T12:31:51;95923.59;;;14.04;71.23
14689;BME280;7432;48.728;9.154;2022-11-15T12:34:38;95930.97;;;14.01;71.00
14689;BME280;7432;48.728;9.154;2022-11-15T12:37:46;95939.31;;;13.96;72.24
14689;BME280;7432;48.728;9.154;2022-11-15T12:40:28;95935.09;;;13.89;73.43
14689;BME280;7432;48.728;9.154;2022-11-15T12:46:02;95935.06;;;13.76;74.08
14689;BME280;7432;48.728;9.154;2022-11-15T12:48:47;95933.44;;;13.68;75.06
14689;BME280;7432;48.728;9.154;2022-11-15T12:51:16;95917.91;;;13.68;74.72
14689;BME280;7432;48.728;9.154;2022-11-15T12:53:43;95933.63;;;13.66;75.01
14689;BME280;7432;48.728;9.154;2022-11-15T12:56:19;95931.66;;;13.69;74.68
14689;BME280;7432;48.728;9.154;2022-11-15T12:58:48;95918.88;;;13.60;75.53
14689;BME280;7432;48.728;9.154;2022-11-15T13:04:25;95916.63;;;13.51;76.39
14689;BME280;7432;48.728;9.154;2022-11-15T13:06:56;95906.88;;;13.46;76.98
14689;BME280;7432;48.728;9.154;2022-11-15T13:09:54;95907.59;;;13.34;77.54
14689;BME280;7432;48.728;9.154;2022-11-15T13:18:34;95895.47;;;13.28;78.81
14689;BME280;7432;48.728;9.154;2022-11-15T13:21:03;95890.91;;;13.36;78.11
14689;BME280;7432;48.728;9.154;2022-11-15T13:23:54;95887.13;;;13.32;77.90
14689;BME280;7432;48.728;9.154;2022-11-15T13:26:21;95882.31;;;13.29;78.41
14689;BME280;7432;48.728;9.154;2022-11-15T13:28:50;95886.50;;;13.30;78.36
14689;BME280;7432;48.728;9.154;2022-11-15T13:31:29;95882.91;;;13.31;77.86
14689;BME280;7432;48.728;9.154;2022-11-15T13:33:59;95885.13;;;13.34;77.64
14689;BME280;7432;48.728;9.154;2022-11-15T13:36:28;95873.19;;;13.33;78.43
14689;BME280;7432;48.728;9.154;2022-11-15T13:39:00;95869.59;;;13.34;78.11
14689;BME280;7432;48.728;9.154;2022-11-15T13:41:28;95867.59;;;13.30;78.48
14689;BME280;7432;48.728;9.154;2022-11-15T13:43:57;95862.59;;;13.22;79.36